KCTY/CTY METAR and TAF weather

Enter ICAO airport designator
Station Type Date Time Source
KCTY METAR 2022/05/26 04:55 UTC NOAA

KCTY 260455Z AUTO 12005KT 10SM BKN049 BKN055 26/21 A3009 RMK AO2 LTG DSNT W AND NW T02600207


Station Type Date Time Source
KCTY Decoded METAR 2022/05/26 04:55 UTC NOAA

CROSS CITY AIRPORT, FL, United States (KCTY) 29-38N 083-06W 12M
May 26, 2022 - 12:55 AM EDT / 2022.05.26 0455 UTC
Wind: from the ESE (120 degrees) at 6 MPH (5 KT):0
Visibility: 10 mile(s):0
Sky conditions: mostly cloudy
Weather: Lightning observed
Temperature: 78.8 F (26.0 C)
Dew Point: 69.3 F (20.7 C)
Relative Humidity: 72%
Pressure (altimeter): 30.09 in. Hg (1018 hPa)
ob: KCTY 260455Z AUTO 12005KT 10SM BKN049 BKN055 26/21 A3009 RMK AO2 LTG DSNT W AND NW T02600207
cycle: 5

Station Type Date Time Source
KCTY TAF UTC NOAA

Error!

Example: see airport list